Wetterstation Vordersexau
Wetterdaten: Woche 02.07.12 - 08.07.12 (KW27)
Datum Zeit Temp. A. Feuchte A. Luftdruck Regen Wind Richtung Taupunkt Windchill Windben
02.07.2012 00:00 15,0 C 76 % 1018,1 hPa 0,0 l/m 0,0 km/h NO 10,8 C 15,0 C 0,0 km/h
02.07.2012 01:00 15,4 C 75 % 1018,2 hPa 0,0 l/m 23,3 km/h N-NO 11,0 C 9,5 C 13,0 km/h
02.07.2012 02:00 15,6 C 73 % 1017,5 hPa 0,0 l/m 14,9 km/h N-NO 10,8 C 12,0 C 8,3 km/h
02.07.2012 03:00 15,6 C 72 % 1017,2 hPa 0,0 l/m 48,6 km/h W 10,6 C 6,4 C 27,0 km/h
02.07.2012 04:00 15,1 C 72 % 1016,7 hPa 0,0 l/m 48,0 km/h W-NW 10,1 C 5,7 C 26,6 km/h
02.07.2012 05:00 15,1 C 71 % 1017,2 hPa 0,0 l/m 0,0 km/h N 9,9 C 15,1 C 0,0 km/h
02.07.2012 06:00 15,1 C 72 % 1015,0 hPa 0,4 l/m 0,0 km/h W-SW 10,1 C 15,1 C 0,0 km/h
02.07.2012 07:00 16,1 C 79 % 1015,5 hPa 0,4 l/m 0,6 km/h W 12,5 C 16,1 C 0,4 km/h
02.07.2012 08:00 15,3 C 79 % 1016,8 hPa 0,0 l/m 23,3 km/h NO 11,7 C 9,4 C 13,0 km/h
02.07.2012 09:00 15,4 C 75 % 1013,9 hPa 1,4 l/m 11,7 km/h NW 11,0 C 12,8 C 6,5 km/h
02.07.2012 10:00 17,9 C 83 % 1013,8 hPa 0,7 l/m 7,1 km/h NW 15,0 C 17,6 C 4,0 km/h
02.07.2012 11:00 19,9 C 82 % 1014,9 hPa 0,0 l/m 4,5 km/h W-NW 16,7 C 19,9 C 2,5 km/h
02.07.2012 12:00 22,2 C 73 % 1014,8 hPa 0,0 l/m 7,1 km/h W-NW 17,1 C 22,0 C 4,0 km/h
02.07.2012 13:00 18,5 C 82 % 1015,4 hPa 0,0 l/m 0,0 km/h N 15,4 C 18,5 C 0,0 km/h
02.07.2012 14:00 18,2 C 83 % 1014,9 hPa 0,4 l/m 52,5 km/h W 15,3 C 10,1 C 29,2 km/h
02.07.2012 15:00 18,9 C 83 % 1014,7 hPa 0,0 l/m 47,3 km/h S 15,9 C 11,5 C 26,3 km/h
02.07.2012 16:00 19,6 C 82 % 1015,0 hPa 0,0 l/m 0,0 km/h S 16,4 C 19,6 C 0,0 km/h
02.07.2012 17:00 21,1 C 82 % 1015,1 hPa 0,0 l/m 1,9 km/h S-SO 17,9 C 21,1 C 1,1 km/h
02.07.2012 18:00 20,2 C 79 % 1015,5 hPa 0,0 l/m 0,0 km/h SO 16,4 C 20,2 C 0,0 km/h
02.07.2012 19:00 19,3 C 82 % 1015,6 hPa 0,0 l/m 2,6 km/h SO 16,1 C 19,3 C 1,4 km/h
02.07.2012 20:00 19,4 C 83 % 1015,6 hPa 0,0 l/m 0,0 km/h SO 16,4 C 19,4 C 0,0 km/h
02.07.2012 21:00 18,1 C 83 % 1015,8 hPa 0,0 l/m 0,0 km/h SO 15,2 C 18,1 C 0,0 km/h
02.07.2012 22:00 17,5 C 82 % 1016,3 hPa 0,0 l/m 0,0 km/h SO 14,4 C 17,5 C 0,0 km/h
02.07.2012 23:00 17,4 C 81 % 1016,6 hPa 0,0 l/m 0,0 km/h NW 14,1 C 17,4 C 0,0 km/h
03.07.2012 00:00 17,3 C 81 % 1016,7 hPa 0,0 l/m 0,0 km/h W 14,0 C 17,3 C 0,0 km/h
03.07.2012 01:00 16,5 C 79 % 1016,7 hPa 0,0 l/m 6,5 km/h W 12,8 C 16,5 C 3,6 km/h
03.07.2012 02:00 16,2 C 73 % 1016,6 hPa 0,4 l/m 44,7 km/h W-NW 11,4 C 7,6 C 24,8 km/h
03.07.2012 03:00 16,1 C 70 % 1016,3 hPa 0,0 l/m 40,2 km/h W 10,6 C 7,9 C 22,3 km/h
03.07.2012 04:00 15,9 C 68 % 1016,5 hPa 0,4 l/m 41,5 km/h N-NW 10,0 C 7,5 C 23,0 km/h
03.07.2012 05:00 15,9 C 67 % 1016,3 hPa 0,0 l/m 0,0 km/h NW 9,8 C 15,9 C 0,0 km/h
03.07.2012 06:00 15,8 C 67 % 1016,5 hPa 0,4 l/m 42,1 km/h W 9,7 C 7,3 C 23,4 km/h
03.07.2012 07:00 15,9 C 66 % 1016,6 hPa 0,0 l/m 48,0 km/h W-NW 9,6 C 6,9 C 26,6 km/h
03.07.2012 08:00 16,4 C 65 % 1016,8 hPa 0,0 l/m 48,6 km/h W-NW 9,8 C 7,6 C 27,0 km/h
03.07.2012 09:00 17,1 C 66 % 1016,8 hPa 0,0 l/m 50,5 km/h N-NO 10,7 C 8,6 C 28,1 km/h
03.07.2012 10:00 17,6 C 76 % 1017,0 hPa 0,4 l/m 0,0 km/h NO 13,3 C 17,6 C 0,0 km/h
03.07.2012 11:00 18,6 C 83 % 1017,0 hPa 0,0 l/m 0,0 km/h NO 15,7 C 18,6 C 0,0 km/h
03.07.2012 12:00 19,2 C 84 % 1017,1 hPa 0,0 l/m 0,0 km/h N-NO 16,4 C 19,2 C 0,0 km/h
03.07.2012 13:00 19,4 C 83 % 1016,7 hPa 0,4 l/m 31,1 km/h N-NO 16,4 C 13,7 C 17,3 km/h
03.07.2012 14:00 24,4 C 69 % 1016,3 hPa 0,0 l/m 0,0 km/h W-NW 18,3 C 24,4 C 0,0 km/h
03.07.2012 15:00 22,6 C 70 % 1016,2 hPa 0,0 l/m 0,0 km/h W-SW 16,8 C 22,6 C 0,0 km/h
03.07.2012 16:00 26,8 C 63 % 1015,9 hPa 0,0 l/m 0,0 km/h S-SW 19,1 C 26,8 C 0,0 km/h
03.07.2012 17:00 24,7 C 63 % 1015,4 hPa 0,0 l/m 0,0 km/h W-SW 17,2 C 24,7 C 0,0 km/h
03.07.2012 18:00 25,1 C 62 % 1015,0 hPa 0,0 l/m 0,0 km/h W-SW 17,3 C 25,1 C 0,0 km/h
03.07.2012 19:00 28,7 C 56 % 1014,7 hPa 0,0 l/m 0,0 km/h SO 19,0 C 28,7 C 0,0 km/h
03.07.2012 20:00 21,4 C 71 % 1014,8 hPa 0,0 l/m 0,0 km/h O-NO 15,9 C 21,4 C 0,0 km/h
03.07.2012 21:00 19,2 C 80 % 1014,8 hPa 0,0 l/m 0,0 km/h O-SO 15,7 C 19,2 C 0,0 km/h
03.07.2012 22:00 17,1 C 83 % 1015,1 hPa 0,0 l/m 0,0 km/h O 14,2 C 17,1 C 0,0 km/h
03.07.2012 23:00 16,2 C 82 % 1015,2 hPa 0,0 l/m 0,0 km/h SO 13,1 C 16,2 C 0,0 km/h
04.07.2012 00:00 15,6 C 82 % 1014,7 hPa 0,0 l/m 0,0 km/h SO 12,5 C 15,6 C 0,0 km/h
04.07.2012 01:00 15,1 C 80 % 1014,3 hPa 0,0 l/m 0,0 km/h O-NO 11,7 C 15,1 C 0,0 km/h
04.07.2012 02:00 14,7 C 79 % 1013,9 hPa 0,0 l/m 0,0 km/h O-NO 11,1 C 14,7 C 0,0 km/h
04.07.2012 03:00 14,0 C 78 % 1013,5 hPa 0,0 l/m 0,0 km/h N-NO 10,2 C 14,0 C 0,0 km/h
04.07.2012 04:00 13,4 C 78 % 1013,2 hPa 0,0 l/m 0,0 km/h N-NO 9,6 C 13,4 C 0,0 km/h
04.07.2012 05:00 13,4 C 76 % 1012,9 hPa 0,0 l/m 0,0 km/h N-NO 9,3 C 13,4 C 0,0 km/h
04.07.2012 06:00 13,2 C 75 % 1013,0 hPa 0,0 l/m 0,0 km/h N-NO 8,9 C 13,2 C 0,0 km/h
04.07.2012 07:00 15,4 C 66 % 1012,8 hPa 0,0 l/m 0,0 km/h SO 9,1 C 15,4 C 0,0 km/h
04.07.2012 08:00 21,3 C 82 % 1012,8 hPa 0,0 l/m 0,0 km/h SW 18,1 C 21,3 C 0,0 km/h
04.07.2012 09:00 25,5 C 67 % 1012,6 hPa 0,0 l/m 3,9 km/h W 18,9 C 25,5 C 2,2 km/h
04.07.2012 10:00 27,6 C 59 % 1012,5 hPa 0,0 l/m 0,0 km/h NW 18,8 C 27,6 C 0,0 km/h
04.07.2012 11:00 28,3 C 60 % 1012,0 hPa 0,0 l/m 0,0 km/h N-NO 19,8 C 28,3 C 0,0 km/h
04.07.2012 12:00 28,9 C 56 % 1011,5 hPa 0,0 l/m 0,0 km/h W 19,2 C 28,9 C 0,0 km/h
04.07.2012 13:00 28,9 C 57 % 1011,0 hPa 0,0 l/m 10,4 km/h W 19,5 C 28,4 C 5,8 km/h
04.07.2012 14:00 29,9 C 53 % 1010,6 hPa 0,0 l/m 3,2 km/h N 19,3 C 29,9 C 1,8 km/h
04.07.2012 15:00 30,3 C 53 % 1010,3 hPa 0,0 l/m 0,0 km/h W 19,6 C 30,3 C 0,0 km/h
04.07.2012 16:00 31,8 C 49 % 1009,7 hPa 0,0 l/m 8,4 km/h W 19,7 C 31,7 C 4,7 km/h
04.07.2012 17:00 31,3 C 50 % 1009,6 hPa 0,0 l/m 0,0 km/h W-SW 19,6 C 31,3 C 0,0 km/h
04.07.2012 18:00 28,9 C 54 % 1008,9 hPa 0,0 l/m 0,0 km/h W-SW 18,6 C 28,9 C 0,0 km/h
04.07.2012 19:00 25,9 C 65 % 1009,2 hPa 0,0 l/m 0,0 km/h O-NO 18,8 C 25,9 C 0,0 km/h
04.07.2012 20:00 24,4 C 73 % 1009,4 hPa 0,0 l/m 0,0 km/h O-NO 19,2 C 24,4 C 0,0 km/h
04.07.2012 21:00 21,9 C 79 % 1009,8 hPa 0,0 l/m 0,0 km/h SO 18,1 C 21,9 C 0,0 km/h
04.07.2012 22:00 20,1 C 82 % 1010,0 hPa 0,0 l/m 0,0 km/h O 16,9 C 20,1 C 0,0 km/h
04.07.2012 23:00 19,3 C 82 % 1010,0 hPa 0,0 l/m 0,0 km/h O-SO 16,1 C 19,3 C 0,0 km/h
05.07.2012 00:00 18,4 C 83 % 1010,0 hPa 0,0 l/m 0,0 km/h O-SO 15,5 C 18,4 C 0,0 km/h
05.07.2012 01:00 18,1 C 81 % 1009,7 hPa 0,0 l/m 1,9 km/h O-SO 14,8 C 18,1 C 1,1 km/h
05.07.2012 02:00 17,3 C 80 % 1009,1 hPa 0,0 l/m 0,0 km/h O 13,8 C 17,3 C 0,0 km/h
05.07.2012 03:00 16,9 C 80 % 1009,0 hPa 0,0 l/m 0,0 km/h SO 13,4 C 16,9 C 0,0 km/h
05.07.2012 04:00 16,2 C 79 % 1009,1 hPa 0,0 l/m 0,0 km/h SO 12,6 C 16,2 C 0,0 km/h
05.07.2012 05:00 15,4 C 78 % 1008,9 hPa 0,0 l/m 0,0 km/h SO 11,6 C 15,4 C 0,0 km/h
05.07.2012 06:00 15,2 C 77 % 1008,8 hPa 0,0 l/m 0,0 km/h SO 11,2 C 15,2 C 0,0 km/h
05.07.2012 07:00 17,1 C 74 % 1009,1 hPa 0,0 l/m 1,9 km/h O-SO 12,4 C 17,1 C 1,1 km/h
05.07.2012 08:00 25,9 C 68 % 1009,2 hPa 0,0 l/m 0,0 km/h S-SW 19,5 C 25,9 C 0,0 km/h
05.07.2012 09:00 29,9 C 51 % 1009,2 hPa 0,0 l/m 7,8 km/h W 18,6 C 29,8 C 4,3 km/h
05.07.2012 10:00 28,4 C 55 % 1009,1 hPa 0,0 l/m 5,2 km/h W 18,5 C 28,4 C 2,9 km/h
05.07.2012 11:00 30,9 C 52 % 1008,9 hPa 0,0 l/m 0,0 km/h W-SW 19,9 C 30,9 C 0,0 km/h
05.07.2012 12:00 28,6 C 55 % 1009,3 hPa 0,0 l/m 16,2 km/h W 18,7 C 27,6 C 9,0 km/h
05.07.2012 13:00 27,5 C 58 % 1008,7 hPa 0,0 l/m 0,0 km/h N 18,5 C 27,5 C 0,0 km/h
05.07.2012 14:00 28,6 C 54 % 1008,4 hPa 0,0 l/m 0,0 km/h W-NW 18,4 C 28,6 C 0,0 km/h
05.07.2012 15:00 29,5 C 54 % 1008,1 hPa 0,0 l/m 0,0 km/h W-SW 19,2 C 29,5 C 0,0 km/h
05.07.2012 16:00 29,1 C 58 % 1008,1 hPa 0,0 l/m 14,3 km/h W 20,0 C 28,3 C 7,9 km/h
05.07.2012 17:00 25,8 C 65 % 1007,8 hPa 0,0 l/m 0,0 km/h W-NW 18,7 C 25,8 C 0,0 km/h
05.07.2012 18:00 25,9 C 62 % 1007,7 hPa 0,0 l/m 0,0 km/h O-NO 18,0 C 25,9 C 0,0 km/h
05.07.2012 19:00 25,8 C 68 % 1007,2 hPa 0,0 l/m 0,0 km/h N-NO 19,4 C 25,8 C 0,0 km/h
05.07.2012 20:00 24,6 C 71 % 1007,1 hPa 0,0 l/m 0,0 km/h SO 19,0 C 24,6 C 0,0 km/h
05.07.2012 21:00 21,3 C 77 % 1007,2 hPa 0,0 l/m 0,0 km/h SO 17,1 C 21,3 C 0,0 km/h
05.07.2012 22:00 19,6 C 82 % 1007,6 hPa 0,0 l/m 0,0 km/h SO 16,4 C 19,6 C 0,0 km/h
05.07.2012 23:00 18,3 C 83 % 1008,1 hPa 0,0 l/m 1,9 km/h O 15,4 C 18,3 C 1,1 km/h
06.07.2012 00:00 17,2 C 83 % 1008,8 hPa 0,0 l/m 0,0 km/h O 14,3 C 17,2 C 0,0 km/h
06.07.2012 01:00 17,2 C 83 % 1010,7 hPa 1,8 l/m 0,0 km/h SO 14,3 C 17,2 C 0,0 km/h
06.07.2012 02:00 16,4 C 82 % 1010,5 hPa 1,4 l/m 0,0 km/h O-NO 13,3 C 16,4 C 0,0 km/h
06.07.2012 03:00 16,1 C 81 % 1009,5 hPa 1,8 l/m 0,0 km/h SO 12,8 C 16,1 C 0,0 km/h
06.07.2012 04:00 16,1 C 78 % 1009,1 hPa 0,0 l/m 0,0 km/h S-SW 12,3 C 16,1 C 0,0 km/h
06.07.2012 05:00 15,8 C 79 % 1010,2 hPa 0,4 l/m 4,5 km/h W-SW 12,2 C 15,8 C 2,5 km/h
06.07.2012 06:00 15,3 C 78 % 1009,2 hPa 1,4 l/m 0,0 km/h SO 11,5 C 15,3 C 0,0 km/h
06.07.2012 07:00 16,1 C 76 % 1009,8 hPa 0,0 l/m 0,0 km/h SO 11,9 C 16,1 C 0,0 km/h
06.07.2012 08:00 16,8 C 78 % 1010,5 hPa 0,4 l/m 0,0 km/h S-SO 12,9 C 16,8 C 0,0 km/h
06.07.2012 09:00 16,9 C 81 % 1010,8 hPa 0,0 l/m 0,0 km/h S-SO 13,6 C 16,9 C 0,0 km/h
06.07.2012 10:00 17,1 C 83 % 1011,3 hPa 0,4 l/m 6,5 km/h W-SW 14,2 C 17,1 C 3,6 km/h
06.07.2012 11:00 20,1 C 83 % 1011,3 hPa 0,0 l/m 0,0 km/h W 17,1 C 20,1 C 0,0 km/h
06.07.2012 12:00 21,3 C 78 % 1011,3 hPa 0,0 l/m 0,0 km/h O-SO 17,3 C 21,3 C 0,0 km/h
06.07.2012 13:00 23,9 C 67 % 1011,7 hPa 0,0 l/m 0,0 km/h W-SW 17,4 C 23,9 C 0,0 km/h
06.07.2012 14:00 25,4 C 61 % 1011,0 hPa 0,0 l/m 0,0 km/h W-SW 17,3 C 25,4 C 0,0 km/h
06.07.2012 15:00 28,1 C 50 % 1011,1 hPa 0,0 l/m 0,0 km/h W 16,7 C 28,1 C 0,0 km/h
06.07.2012 16:00 31,1 C 43 % 1010,8 hPa 0,0 l/m 14,9 km/h W 17,0 C 30,7 C 8,3 km/h
06.07.2012 17:00 31,5 C 41 % 1010,7 hPa 0,0 l/m 13,0 km/h W 16,6 C 31,2 C 7,2 km/h
06.07.2012 18:00 24,6 C 56 % 1010,4 hPa 0,0 l/m 0,0 km/h S-SW 15,2 C 24,6 C 0,0 km/h
06.07.2012 19:00 24,4 C 60 % 1010,5 hPa 0,0 l/m 7,1 km/h SW 16,1 C 24,2 C 4,0 km/h
06.07.2012 20:00 22,1 C 67 % 1010,5 hPa 0,0 l/m 7,8 km/h S-SO 15,7 C 21,6 C 4,3 km/h
06.07.2012 21:00 20,3 C 74 % 1010,9 hPa 0,0 l/m 0,0 km/h NO 15,5 C 20,3 C 0,0 km/h
06.07.2012 22:00 18,6 C 80 % 1011,4 hPa 0,0 l/m 0,0 km/h NO 15,1 C 18,6 C 0,0 km/h
06.07.2012 23:00 17,9 C 82 % 1011,7 hPa 0,0 l/m 0,0 km/h N-NO 14,8 C 17,9 C 0,0 km/h
07.07.2012 00:00 17,3 C 83 % 1012,0 hPa 0,0 l/m 0,0 km/h N-NO 14,4 C 17,3 C 0,0 km/h
07.07.2012 01:00 16,4 C 83 % 1012,3 hPa 0,0 l/m 0,0 km/h O-NO 13,5 C 16,4 C 0,0 km/h
07.07.2012 02:00 15,6 C 82 % 1012,2 hPa 0,0 l/m 0,0 km/h O-NO 12,5 C 15,6 C 0,0 km/h
07.07.2012 03:00 14,4 C 83 % 1011,8 hPa 0,0 l/m 0,0 km/h NO 11,5 C 14,4 C 0,0 km/h
07.07.2012 04:00 13,8 C 82 % 1012,3 hPa 0,0 l/m 0,0 km/h SO 10,8 C 13,8 C 0,0 km/h
07.07.2012 05:00 13,8 C 80 % 1011,9 hPa 0,0 l/m 0,0 km/h SO 10,4 C 13,8 C 0,0 km/h
07.07.2012 06:00 13,8 C 79 % 1011,8 hPa 0,0 l/m 0,6 km/h N-NO 10,2 C 13,8 C 0,4 km/h
07.07.2012 07:00 15,4 C 76 % 1012,3 hPa 0,0 l/m 0,0 km/h O-NO 11,2 C 15,4 C 0,0 km/h
07.07.2012 08:00 23,3 C 71 % 1012,6 hPa 0,0 l/m 0,0 km/h O-NO 17,7 C 23,3 C 0,0 km/h
07.07.2012 09:00 24,4 C 64 % 1012,4 hPa 0,0 l/m 0,0 km/h W-SW 17,1 C 24,4 C 0,0 km/h
07.07.2012 10:00 22,8 C 67 % 1012,4 hPa 0,0 l/m 0,0 km/h W-SW 16,3 C 22,8 C 0,0 km/h
07.07.2012 11:00 25,9 C 61 % 1012,1 hPa 0,0 l/m 12,3 km/h S 17,8 C 24,8 C 6,8 km/h
07.07.2012 12:00 27,1 C 52 % 1012,1 hPa 0,0 l/m 1,3 km/h W-SW 16,4 C 27,1 C 0,7 km/h
07.07.2012 13:00 27,3 C 53 % 1011,7 hPa 0,0 l/m 3,2 km/h NW 16,9 C 27,3 C 1,8 km/h
07.07.2012 14:00 27,2 C 47 % 1011,4 hPa 0,0 l/m 12,3 km/h W-NW 14,9 C 26,3 C 6,8 km/h
07.07.2012 15:00 28,5 C 45 % 1011,0 hPa 0,0 l/m 21,4 km/h O-SO 15,4 C 27,1 C 11,9 km/h
07.07.2012 16:00 31,9 C 41 % 1010,6 hPa 0,0 l/m 0,0 km/h NW 17,0 C 31,9 C 0,0 km/h
07.07.2012 17:00 34,9 C 35 % 1010,0 hPa 0,0 l/m 18,8 km/h W 17,1 C 34,9 C 10,4 km/h
07.07.2012 18:00 34,5 C 35 % 1009,7 hPa 0,0 l/m 0,6 km/h W 16,8 C 34,5 C 0,4 km/h
07.07.2012 19:00 30,4 C 42 % 1009,6 hPa 0,0 l/m 0,0 km/h N 16,0 C 30,4 C 0,0 km/h
07.07.2012 20:00 24,5 C 59 % 1009,3 hPa 0,0 l/m 0,0 km/h O-SO 15,9 C 24,5 C 0,0 km/h
07.07.2012 21:00 20,6 C 71 % 1009,2 hPa 0,0 l/m 0,0 km/h NO 15,2 C 20,6 C 0,0 km/h
07.07.2012 22:00 18,8 C 77 % 1009,0 hPa 0,0 l/m 0,0 km/h SO 14,7 C 18,8 C 0,0 km/h
07.07.2012 23:00 17,8 C 79 % 1008,7 hPa 0,0 l/m 0,0 km/h O-SO 14,1 C 17,8 C 0,0 km/h
08.07.2012 00:00 16,4 C 82 % 1008,6 hPa 0,0 l/m 0,0 km/h O-SO 13,3 C 16,4 C 0,0 km/h
08.07.2012 01:00 16,5 C 82 % 1007,5 hPa 0,0 l/m 0,0 km/h O-NO 13,4 C 16,5 C 0,0 km/h
08.07.2012 02:00 16,4 C 82 % 1007,4 hPa 0,0 l/m 0,0 km/h SO 13,3 C 16,4 C 0,0 km/h
08.07.2012 03:00 16,5 C 83 % 1007,4 hPa 0,0 l/m 0,0 km/h O-NO 13,6 C 16,5 C 0,0 km/h
08.07.2012 04:00 16,3 C 83 % 1006,2 hPa 0,0 l/m 0,0 km/h N-NO 13,4 C 16,3 C 0,0 km/h
08.07.2012 05:00 16,3 C 83 % 1006,2 hPa 0,0 l/m 0,0 km/h S-SO 13,4 C 16,3 C 0,0 km/h
08.07.2012 06:00 16,4 C 82 % 1008,4 hPa 0,4 l/m 0,0 km/h SO 13,3 C 16,4 C 0,0 km/h
08.07.2012 07:00 16,8 C 79 % 1007,6 hPa 1,8 l/m 0,0 km/h W-SW 13,1 C 16,8 C 0,0 km/h
08.07.2012 08:00 15,9 C 79 % 1011,9 hPa 5,3 l/m 7,8 km/h S-SO 12,3 C 15,1 C 4,3 km/h
08.07.2012 09:00 16,8 C 83 % 1010,4 hPa 0,7 l/m 1,9 km/h S-SW 13,9 C 16,8 C 1,1 km/h
08.07.2012 10:00 25,1 C 62 % 1010,1 hPa 0,0 l/m 1,9 km/h SW 17,3 C 25,1 C 1,1 km/h
08.07.2012 11:00 20,4 C 69 % 1010,6 hPa 0,0 l/m 24,0 km/h SW 14,5 C 16,1 C 13,3 km/h
08.07.2012 12:00 23,3 C 65 % 1010,5 hPa 0,0 l/m 16,8 km/h SW 16,3 C 20,9 C 9,4 km/h
08.07.2012 13:00 23,6 C 61 % 1010,8 hPa 0,0 l/m 13,6 km/h W 15,6 C 21,9 C 7,6 km/h
08.07.2012 14:00 25,0 C 58 % 1010,2 hPa 0,0 l/m 19,4 km/h N-NO 16,1 C 22,7 C 10,8 km/h
08.07.2012 15:00 26,5 C 51 % 1009,8 hPa 0,0 l/m 18,8 km/h W-NW 15,5 C 24,7 C 10,4 km/h
08.07.2012 16:00 27,8 C 48 % 1009,9 hPa 0,0 l/m 38,2 km/h W 15,8 C 25,4 C 21,2 km/h
08.07.2012 17:00 28,6 C 44 % 1009,9 hPa 0,0 l/m 21,4 km/h SW 15,1 C 27,2 C 11,9 km/h
08.07.2012 18:00 28,9 C 43 % 1009,7 hPa 0,0 l/m 22,0 km/h W-SW 15,0 C 27,6 C 12,2 km/h
08.07.2012 19:00 26,1 C 47 % 1009,8 hPa 0,0 l/m 23,3 km/h SW 13,9 C 23,8 C 13,0 km/h
08.07.2012 20:00 22,3 C 58 % 1010,3 hPa 0,0 l/m 0,0 km/h W 13,6 C 22,3 C 0,0 km/h
08.07.2012 21:00 19,3 C 66 % 1011,0 hPa 0,0 l/m 0,0 km/h S-SW 12,8 C 19,3 C 0,0 km/h
08.07.2012 22:00 18,2 C 74 % 1011,8 hPa 0,0 l/m 20,7 km/h S-SW 13,5 C 13,7 C 11,5 km/h
08.07.2012 23:00 18,6 C 71 % 1012,3 hPa 0,0 l/m 0,0 km/h NW 13,2 C 18,6 C 0,0 km/h
Min-Datum _ 04.07.12 07.07.12 08.07.12 - 02.07.12 - 04.07.12 02.07.12 02.07.12
_ Min-Zeit 06:19 17:19 04:19 - 00:19 - 06:19 04:19 00:19
Minimum _ 13,2 C 35 % 1006,2 hPa - 0,0 km/h - 8,9 C 5,7 C 0,0 km/h
Max-Datum _ 07.07.12 03.07.12 02.07.12 08.07.12 02.07.12 - 05.07.12 07.07.12 02.07.12
_ Max-Zeit 17:19 12:19 01:19 08:19 14:19 - 16:19 17:19 14:19
Maximum _ 34,9 C 84 % 1018,2 hPa 5,3 l/m 52,5 km/h
W
- 20,0 C 34,9 C 29,2 km/h
W
Durchschnitt _ 20,9 C 70 % 1011,9 hPa #20,6 l/m 6,4 km/h SO 14,9 C 20,0 C 3,6 km/h
www.sexauwetter.de